sensor_id;sensor_type;location;lat;lon;timestamp;temperature;humidity
53314;DHT22;39202;51.468;7.146;2022-09-12T00:01:18;28.20;41.80
53314;DHT22;39202;51.468;7.146;2022-09-12T00:06:23;28.20;41.80
53314;DHT22;39202;51.468;7.146;2022-09-12T00:11:26;28.20;41.80
53314;DHT22;39202;51.468;7.146;2022-09-12T00:16:30;28.20;41.80
53314;DHT22;39202;51.468;7.146;2022-09-12T00:21:35;28.20;41.80
53314;DHT22;39202;51.468;7.146;2022-09-12T00:26:37;28.10;41.80
53314;DHT22;39202;51.468;7.146;2022-09-12T00:31:39;28.10;41.70
53314;DHT22;39202;51.468;7.146;2022-09-12T00:36:42;28.10;41.80
53314;DHT22;39202;51.468;7.146;2022-09-12T00:41:44;28.10;41.80
53314;DHT22;39202;51.468;7.146;2022-09-12T00:46:48;28.10;41.80
53314;DHT22;39202;51.468;7.146;2022-09-12T00:51:56;28.10;41.80
53314;DHT22;39202;51.468;7.146;2022-09-12T00:57:02;28.10;41.80
53314;DHT22;39202;51.468;7.146;2022-09-12T01:02:05;28.10;41.80
53314;DHT22;39202;51.468;7.146;2022-09-12T01:07:09;28.10;41.80
53314;DHT22;39202;51.468;7.146;2022-09-12T01:12:13;28.10;41.80
53314;DHT22;39202;51.468;7.146;2022-09-12T01:17:15;28.10;41.80
53314;DHT22;39202;51.468;7.146;2022-09-12T01:22:36;28.10;41.80
53314;DHT22;39202;51.468;7.146;2022-09-12T01:27:56;28.00;41.80
53314;DHT22;39202;51.468;7.146;2022-09-12T01:33:19;28.00;41.70
53314;DHT22;39202;51.468;7.146;2022-09-12T01:38:29;28.00;41.70
53314;DHT22;39202;51.468;7.146;2022-09-12T01:43:43;28.00;41.80
53314;DHT22;39202;51.468;7.146;2022-09-12T01:48:53;28.00;41.70
53314;DHT22;39202;51.468;7.146;2022-09-12T01:53:59;28.00;41.80
53314;DHT22;39202;51.468;7.146;2022-09-12T01:59:07;28.00;41.80
53314;DHT22;39202;51.468;7.146;2022-09-12T02:04:15;28.00;77.70
53314;DHT22;39202;51.468;7.146;2022-09-12T02:09:23;28.00;56.50
53314;DHT22;39202;51.468;7.146;2022-09-12T02:14:29;28.00;41.90
53314;DHT22;39202;51.468;7.146;2022-09-12T02:19:38;28.00;41.90
53314;DHT22;39202;51.468;7.146;2022-09-12T02:24:44;28.00;41.90
53314;DHT22;39202;51.468;7.146;2022-09-12T02:29:47;28.00;41.90
53314;DHT22;39202;51.468;7.146;2022-09-12T02:34:56;27.50;41.60
53314;DHT22;39202;51.468;7.146;2022-09-12T02:40:00;28.00;41.90
53314;DHT22;39202;51.468;7.146;2022-09-12T02:45:03;27.90;41.80
53314;DHT22;39202;51.468;7.146;2022-09-12T02:50:08;27.90;41.80
53314;DHT22;39202;51.468;7.146;2022-09-12T02:55:10;27.90;41.80
53314;DHT22;39202;51.468;7.146;2022-09-12T03:00:13;27.90;41.80
53314;DHT22;39202;51.468;7.146;2022-09-12T03:05:29;27.90;41.80
53314;DHT22;39202;51.468;7.146;2022-09-12T03:10:37;27.90;41.80
53314;DHT22;39202;51.468;7.146;2022-09-12T03:15:48;27.90;41.80
53314;DHT22;39202;51.468;7.146;2022-09-12T03:21:01;27.90;42.50
53314;DHT22;39202;51.468;7.146;2022-09-12T03:26:08;27.90;41.80
53314;DHT22;39202;51.468;7.146;2022-09-12T03:31:13;27.90;41.80
53314;DHT22;39202;51.468;7.146;2022-09-12T03:36:19;27.90;41.80
53314;DHT22;39202;51.468;7.146;2022-09-12T03:41:22;27.80;41.80
53314;DHT22;39202;51.468;7.146;2022-09-12T03:46:23;27.80;41.80
53314;DHT22;39202;51.468;7.146;2022-09-12T03:51:27;27.80;41.80
53314;DHT22;39202;51.468;7.146;2022-09-12T03:56:28;27.80;41.80
53314;DHT22;39202;51.468;7.146;2022-09-12T04:01:30;27.80;41.80
53314;DHT22;39202;51.468;7.146;2022-09-12T04:06:34;27.80;41.80
53314;DHT22;39202;51.468;7.146;2022-09-12T04:11:35;27.80;41.80
53314;DHT22;39202;51.468;7.146;2022-09-12T04:16:37;27.80;41.80
53314;DHT22;39202;51.468;7.146;2022-09-12T04:21:40;27.80;41.90
53314;DHT22;39202;51.468;7.146;2022-09-12T04:26:42;27.80;41.80
53314;DHT22;39202;51.468;7.146;2022-09-12T04:31:44;27.80;41.80
53314;DHT22;39202;51.468;7.146;2022-09-12T04:36:47;27.80;41.90
53314;DHT22;39202;51.468;7.146;2022-09-12T04:41:49;27.80;41.90
53314;DHT22;39202;51.468;7.146;2022-09-12T04:46:51;27.70;41.80
53314;DHT22;39202;51.468;7.146;2022-09-12T04:51:54;27.70;41.80
53314;DHT22;39202;51.468;7.146;2022-09-12T04:56:56;27.70;41.80
53314;DHT22;39202;51.468;7.146;2022-09-12T05:01:58;27.70;41.80
53314;DHT22;39202;51.468;7.146;2022-09-12T05:07:02;27.70;41.80
53314;DHT22;39202;51.468;7.146;2022-09-12T05:12:05;27.70;41.80
53314;DHT22;39202;51.468;7.146;2022-09-12T05:17:07;27.70;41.80
53314;DHT22;39202;51.468;7.146;2022-09-12T05:22:10;27.70;41.90
53314;DHT22;39202;51.468;7.146;2022-09-12T05:27:12;27.70;41.90
53314;DHT22;39202;51.468;7.146;2022-09-12T05:32:14;27.70;41.90
53314;DHT22;39202;51.468;7.146;2022-09-12T05:37:17;27.70;41.90
53314;DHT22;39202;51.468;7.146;2022-09-12T05:42:19;27.70;41.90
53314;DHT22;39202;51.468;7.146;2022-09-12T05:47:20;27.70;41.90
53314;DHT22;39202;51.468;7.146;2022-09-12T05:52:24;27.70;41.90
53314;DHT22;39202;51.468;7.146;2022-09-12T05:57:26;27.70;41.90
53314;DHT22;39202;51.468;7.146;2022-09-12T06:02:28;27.70;41.90
53314;DHT22;39202;51.468;7.146;2022-09-12T06:07:31;27.70;41.90
53314;DHT22;39202;51.468;7.146;2022-09-12T06:12:33;27.70;41.90
53314;DHT22;39202;51.468;7.146;2022-09-12T06:17:35;27.70;41.90
53314;DHT22;39202;51.468;7.146;2022-09-12T06:22:38;27.70;41.90
53314;DHT22;39202;51.468;7.146;2022-09-12T06:27:40;27.70;41.90
53314;DHT22;39202;51.468;7.146;2022-09-12T06:32:42;27.70;41.90
53314;DHT22;39202;51.468;7.146;2022-09-12T06:37:45;27.70;42.00
53314;DHT22;39202;51.468;7.146;2022-09-12T06:42:47;27.70;42.10
53314;DHT22;39202;51.468;7.146;2022-09-12T06:47:49;27.80;42.20
53314;DHT22;39202;51.468;7.146;2022-09-12T06:52:52;27.80;42.20
53314;DHT22;39202;51.468;7.146;2022-09-12T06:57:53;27.80;42.30
53314;DHT22;39202;51.468;7.146;2022-09-12T07:02:55;27.80;42.40
53314;DHT22;39202;51.468;7.146;2022-09-12T07:07:58;27.80;42.50
53314;DHT22;39202;51.468;7.146;2022-09-12T07:13:00;27.90;42.50
53314;DHT22;39202;51.468;7.146;2022-09-12T07:18:02;27.90;42.50
53314;DHT22;39202;51.468;7.146;2022-09-12T07:23:05;27.90;42.50
53314;DHT22;39202;51.468;7.146;2022-09-12T07:28:07;28.00;42.60
53314;DHT22;39202;51.468;7.146;2022-09-12T07:33:08;28.00;42.40
53314;DHT22;39202;51.468;7.146;2022-09-12T07:38:12;28.00;42.50
53314;DHT22;39202;51.468;7.146;2022-09-12T07:43:13;28.00;42.60
53314;DHT22;39202;51.468;7.146;2022-09-12T07:48:15;28.00;42.50
53314;DHT22;39202;51.468;7.146;2022-09-12T07:53:18;28.00;42.50
53314;DHT22;39202;51.468;7.146;2022-09-12T07:58:20;28.00;42.70
53314;DHT22;39202;51.468;7.146;2022-09-12T08:03:21;28.00;42.60
53314;DHT22;39202;51.468;7.146;2022-09-12T08:08:24;28.00;42.80
53314;DHT22;39202;51.468;7.146;2022-09-12T08:13:27;28.00;42.70
53314;DHT22;39202;51.468;7.146;2022-09-12T08:18:30;28.00;42.80
53314;DHT22;39202;51.468;7.146;2022-09-12T08:23:34;28.10;42.80
53314;DHT22;39202;51.468;7.146;2022-09-12T08:28:36;28.10;42.80
53314;DHT22;39202;51.468;7.146;2022-09-12T08:33:39;28.10;42.80
53314;DHT22;39202;51.468;7.146;2022-09-12T08:38:44;28.10;42.80
53314;DHT22;39202;51.468;7.146;2022-09-12T08:44:04;28.20;42.80
53314;DHT22;39202;51.468;7.146;2022-09-12T08:49:10;28.20;42.90
53314;DHT22;39202;51.468;7.146;2022-09-12T08:54:20;28.20;42.70
53314;DHT22;39202;51.468;7.146;2022-09-12T08:59:24;28.30;42.90
53314;DHT22;39202;51.468;7.146;2022-09-12T09:04:33;28.40;42.80
53314;DHT22;39202;51.468;7.146;2022-09-12T09:09:48;28.40;42.80
53314;DHT22;39202;51.468;7.146;2022-09-12T09:15:09;28.50;42.70
53314;DHT22;39202;51.468;7.146;2022-09-12T09:20:21;28.50;42.60
53314;DHT22;39202;51.468;7.146;2022-09-12T09:25:37;28.60;42.60
53314;DHT22;39202;51.468;7.146;2022-09-12T09:30:42;28.60;42.60
53314;DHT22;39202;51.468;7.146;2022-09-12T09:35:45;28.70;42.90
53314;DHT22;39202;51.468;7.146;2022-09-12T09:40:55;28.80;43.00
53314;DHT22;39202;51.468;7.146;2022-09-12T09:46:00;28.90;42.90
53314;DHT22;39202;51.468;7.146;2022-09-12T09:51:03;29.00;43.00
53314;DHT22;39202;51.468;7.146;2022-09-12T09:56:10;29.10;43.20
53314;DHT22;39202;51.468;7.146;2022-09-12T10:01:14;29.10;43.00
53314;DHT22;39202;51.468;7.146;2022-09-12T10:06:27;29.20;42.90
53314;DHT22;39202;51.468;7.146;2022-09-12T10:11:33;29.30;42.80
53314;DHT22;39202;51.468;7.146;2022-09-12T10:21:53;29.40;91.10
53314;DHT22;39202;51.468;7.146;2022-09-12T10:27:06;29.40;42.70
53314;DHT22;39202;51.468;7.146;2022-09-12T10:32:08;29.50;42.70
53314;DHT22;39202;51.468;7.146;2022-09-12T10:37:18;29.60;42.70
53314;DHT22;39202;51.468;7.146;2022-09-12T10:52:46;30.00;41.50
53314;DHT22;39202;51.468;7.146;2022-09-12T10:58:04;30.00;41.90
53314;DHT22;39202;51.468;7.146;2022-09-12T11:03:15;29.90;41.90
53314;DHT22;39202;51.468;7.146;2022-09-12T11:08:37;30.00;42.00
53314;DHT22;39202;51.468;7.146;2022-09-12T11:13:52;30.00;41.90
53314;DHT22;39202;51.468;7.146;2022-09-12T11:19:09;30.00;41.90
53314;DHT22;39202;51.468;7.146;2022-09-12T11:24:24;30.10;41.40
53314;DHT22;39202;51.468;7.146;2022-09-12T11:29:45;30.10;41.40
53314;DHT22;39202;51.468;7.146;2022-09-12T11:34:54;30.20;41.40
53314;DHT22;39202;51.468;7.146;2022-09-12T11:40:06;30.20;41.90
53314;DHT22;39202;51.468;7.146;2022-09-12T11:45:21;30.30;41.10
53314;DHT22;39202;51.468;7.146;2022-09-12T11:50:27;30.30;41.30
53314;DHT22;39202;51.468;7.146;2022-09-12T12:00:42;30.40;40.70
53314;DHT22;39202;51.468;7.146;2022-09-12T12:05:51;30.50;41.30
53314;DHT22;39202;51.468;7.146;2022-09-12T12:10:56;30.50;41.30
53314;DHT22;39202;51.468;7.146;2022-09-12T12:16:01;30.60;41.40
53314;DHT22;39202;51.468;7.146;2022-09-12T12:21:20;30.60;41.40
53314;DHT22;39202;51.468;7.146;2022-09-12T12:26:52;30.60;41.30
53314;DHT22;39202;51.468;7.146;2022-09-12T12:32:20;30.60;41.20
53314;DHT22;39202;51.468;7.146;2022-09-12T12:43:27;30.70;41.30
53314;DHT22;39202;51.468;7.146;2022-09-12T12:53:52;30.70;41.30
53314;DHT22;39202;51.468;7.146;2022-09-12T12:58:59;30.70;41.40
53314;DHT22;39202;51.468;7.146;2022-09-12T13:04:03;30.80;41.30
53314;DHT22;39202;51.468;7.146;2022-09-12T13:09:07;30.80;41.30
53314;DHT22;39202;51.468;7.146;2022-09-12T13:14:34;30.80;41.30
53314;DHT22;39202;51.468;7.146;2022-09-12T13:19:36;30.80;41.20
53314;DHT22;39202;51.468;7.146;2022-09-12T13:24:41;30.90;41.30
53314;DHT22;39202;51.468;7.146;2022-09-12T13:29:45;30.90;41.30
53314;DHT22;39202;51.468;7.146;2022-09-12T13:34:59;30.80;41.20
53314;DHT22;39202;51.468;7.146;2022-09-12T13:40:21;30.80;41.10
53314;DHT22;39202;51.468;7.146;2022-09-12T13:45:34;30.80;41.10
53314;DHT22;39202;51.468;7.146;2022-09-12T13:50:41;30.80;41.10
53314;DHT22;39202;51.468;7.146;2022-09-12T13:55:46;30.80;41.20
53314;DHT22;39202;51.468;7.146;2022-09-12T14:01:02;30.90;41.20
53314;DHT22;39202;51.468;7.146;2022-09-12T14:06:04;30.80;41.10
53314;DHT22;39202;51.468;7.146;2022-09-12T14:11:08;30.80;41.10
53314;DHT22;39202;51.468;7.146;2022-09-12T14:16:13;30.70;41.10
53314;DHT22;39202;51.468;7.146;2022-09-12T14:21:32;30.80;41.20
53314;DHT22;39202;51.468;7.146;2022-09-12T14:26:35;30.70;41.10
53314;DHT22;39202;51.468;7.146;2022-09-12T14:31:39;30.70;41.10
53314;DHT22;39202;51.468;7.146;2022-09-12T14:36:45;30.70;41.10
53314;DHT22;39202;51.468;7.146;2022-09-12T14:41:48;30.70;41.20
53314;DHT22;39202;51.468;7.146;2022-09-12T14:46:51;30.60;41.10
53314;DHT22;39202;51.468;7.146;2022-09-12T14:51:56;30.60;41.10
53314;DHT22;39202;51.468;7.146;2022-09-12T14:57:00;30.60;41.10
53314;DHT22;39202;51.468;7.146;2022-09-12T15:02:21;30.60;41.20
53314;DHT22;39202;51.468;7.146;2022-09-12T15:07:30;30.60;41.20
53314;DHT22;39202;51.468;7.146;2022-09-12T15:12:33;30.60;41.30
53314;DHT22;39202;51.468;7.146;2022-09-12T15:17:36;30.60;41.30
53314;DHT22;39202;51.468;7.146;2022-09-12T15:22:37;30.50;41.30
53314;DHT22;39202;51.468;7.146;2022-09-12T15:27:39;30.60;41.40
53314;DHT22;39202;51.468;7.146;2022-09-12T15:32:44;30.50;41.30
53314;DHT22;39202;51.468;7.146;2022-09-12T15:37:46;30.50;41.30
53314;DHT22;39202;51.468;7.146;2022-09-12T15:42:47;30.50;41.30
53314;DHT22;39202;51.468;7.146;2022-09-12T15:47:50;30.50;41.30
53314;DHT22;39202;51.468;7.146;2022-09-12T15:52:52;30.50;41.20
53314;DHT22;39202;51.468;7.146;2022-09-12T15:57:54;30.40;41.10
53314;DHT22;39202;51.468;7.146;2022-09-12T16:02:57;30.40;41.20
53314;DHT22;39202;51.468;7.146;2022-09-12T16:08:00;30.40;41.20
53314;DHT22;39202;51.468;7.146;2022-09-12T16:13:01;30.40;41.20
53314;DHT22;39202;51.468;7.146;2022-09-12T16:18:05;30.30;41.10
53314;DHT22;39202;51.468;7.146;2022-09-12T16:23:09;30.30;41.10
53314;DHT22;39202;51.468;7.146;2022-09-12T16:28:11;30.30;41.10
53314;DHT22;39202;51.468;7.146;2022-09-12T16:33:14;30.30;41.10
53314;DHT22;39202;51.468;7.146;2022-09-12T16:38:16;30.20;41.00
53314;DHT22;39202;51.468;7.146;2022-09-12T16:43:18;30.20;41.00
53314;DHT22;39202;51.468;7.146;2022-09-12T16:48:21;30.20;41.10
53314;DHT22;39202;51.468;7.146;2022-09-12T16:53:23;30.20;41.10
53314;DHT22;39202;51.468;7.146;2022-09-12T16:58:25;30.20;41.10
53314;DHT22;39202;51.468;7.146;2022-09-12T17:03:29;30.10;41.00
53314;DHT22;39202;51.468;7.146;2022-09-12T17:08:32;30.10;41.00
53314;DHT22;39202;51.468;7.146;2022-09-12T17:13:34;30.10;41.00
53314;DHT22;39202;51.468;7.146;2022-09-12T17:18:38;30.10;41.00
53314;DHT22;39202;51.468;7.146;2022-09-12T17:23:40;30.10;41.00
53314;DHT22;39202;51.468;7.146;2022-09-12T17:28:42;30.00;41.00
53314;DHT22;39202;51.468;7.146;2022-09-12T17:33:45;30.10;41.00
53314;DHT22;39202;51.468;7.146;2022-09-12T17:38:47;30.00;41.00
53314;DHT22;39202;51.468;7.146;2022-09-12T17:43:50;30.00;41.70
53314;DHT22;39202;51.468;7.146;2022-09-12T17:48:56;30.00;41.10
53314;DHT22;39202;51.468;7.146;2022-09-12T17:53:59;30.00;41.10
53314;DHT22;39202;51.468;7.146;2022-09-12T17:59:02;29.90;41.00
53314;DHT22;39202;51.468;7.146;2022-09-12T18:04:05;29.90;41.00
53314;DHT22;39202;51.468;7.146;2022-09-12T18:09:07;29.90;41.00
53314;DHT22;39202;51.468;7.146;2022-09-12T18:14:09;29.90;41.00
53314;DHT22;39202;51.468;7.146;2022-09-12T18:19:13;29.90;41.00
53314;DHT22;39202;51.468;7.146;2022-09-12T18:24:14;29.90;41.00
53314;DHT22;39202;51.468;7.146;2022-09-12T18:29:16;29.90;41.00
53314;DHT22;39202;51.468;7.146;2022-09-12T18:34:20;29.90;41.10
53314;DHT22;39202;51.468;7.146;2022-09-12T18:39:22;29.90;41.10
53314;DHT22;39202;51.468;7.146;2022-09-12T18:44:24;29.80;41.10
53314;DHT22;39202;51.468;7.146;2022-09-12T18:49:27;29.80;41.10
53314;DHT22;39202;51.468;7.146;2022-09-12T18:54:29;29.80;41.10
53314;DHT22;39202;51.468;7.146;2022-09-12T18:59:32;29.80;41.10
53314;DHT22;39202;51.468;7.146;2022-09-12T19:04:35;29.80;41.10
53314;DHT22;39202;51.468;7.146;2022-09-12T19:09:37;29.80;41.10
53314;DHT22;39202;51.468;7.146;2022-09-12T19:14:39;29.80;41.10
53314;DHT22;39202;51.468;7.146;2022-09-12T19:19:42;29.70;41.10
53314;DHT22;39202;51.468;7.146;2022-09-12T19:24:43;29.70;41.10
53314;DHT22;39202;51.468;7.146;2022-09-12T19:29:45;29.70;41.20
53314;DHT22;39202;51.468;7.146;2022-09-12T19:34:48;29.70;41.20
53314;DHT22;39202;51.468;7.146;2022-09-12T19:39:50;29.70;41.20
53314;DHT22;39202;51.468;7.146;2022-09-12T19:44:52;29.70;41.20
53314;DHT22;39202;51.468;7.146;2022-09-12T19:49:56;29.60;41.20
53314;DHT22;39202;51.468;7.146;2022-09-12T19:54:59;29.60;41.20
53314;DHT22;39202;51.468;7.146;2022-09-12T20:00:01;29.70;41.20
53314;DHT22;39202;51.468;7.146;2022-09-12T20:05:05;29.60;41.20
53314;DHT22;39202;51.468;7.146;2022-09-12T20:10:08;29.60;41.90
53314;DHT22;39202;51.468;7.146;2022-09-12T20:15:10;29.60;41.20
53314;DHT22;39202;51.468;7.146;2022-09-12T20:20:13;29.60;41.20
53314;DHT22;39202;51.468;7.146;2022-09-12T20:25:16;29.60;41.20
53314;DHT22;39202;51.468;7.146;2022-09-12T20:30:19;29.60;41.30
53314;DHT22;39202;51.468;7.146;2022-09-12T20:35:22;29.60;41.30
53314;DHT22;39202;51.468;7.146;2022-09-12T20:40:25;29.60;41.30
53314;DHT22;39202;51.468;7.146;2022-09-12T20:45:26;29.50;41.30
53314;DHT22;39202;51.468;7.146;2022-09-12T20:50:29;29.50;41.20
53314;DHT22;39202;51.468;7.146;2022-09-12T20:55:31;29.50;41.30
53314;DHT22;39202;51.468;7.146;2022-09-12T21:00:33;29.50;41.20
53314;DHT22;39202;51.468;7.146;2022-09-12T21:05:36;29.50;41.30
53314;DHT22;39202;51.468;7.146;2022-09-12T21:10:39;29.50;41.30
53314;DHT22;39202;51.468;7.146;2022-09-12T21:15:40;29.50;41.30
53314;DHT22;39202;51.468;7.146;2022-09-12T21:20:50;29.50;41.30
53314;DHT22;39202;51.468;7.146;2022-09-12T21:25:52;29.50;41.30
53314;DHT22;39202;51.468;7.146;2022-09-12T21:30:53;29.50;41.30
53314;DHT22;39202;51.468;7.146;2022-09-12T21:36:00;29.50;41.30
53314;DHT22;39202;51.468;7.146;2022-09-12T21:41:04;29.40;41.30
53314;DHT22;39202;51.468;7.146;2022-09-12T21:46:06;29.40;41.30
53314;DHT22;39202;51.468;7.146;2022-09-12T21:51:09;29.40;41.30
53314;DHT22;39202;51.468;7.146;2022-09-12T21:56:11;29.40;41.30
53314;DHT22;39202;51.468;7.146;2022-09-12T22:01:12;29.40;41.30
53314;DHT22;39202;51.468;7.146;2022-09-12T22:06:15;29.40;41.30
53314;DHT22;39202;51.468;7.146;2022-09-12T22:11:17;29.40;41.30
53314;DHT22;39202;51.468;7.146;2022-09-12T22:16:20;29.40;41.30
53314;DHT22;39202;51.468;7.146;2022-09-12T22:21:23;29.40;41.30
53314;DHT22;39202;51.468;7.146;2022-09-12T22:26:24;29.40;41.30
53314;DHT22;39202;51.468;7.146;2022-09-12T22:31:26;29.40;41.30
53314;DHT22;39202;51.468;7.146;2022-09-12T22:36:30;29.40;41.30
53314;DHT22;39202;51.468;7.146;2022-09-12T22:41:32;29.30;41.90
53314;DHT22;39202;51.468;7.146;2022-09-12T22:46:33;29.40;41.30
53314;DHT22;39202;51.468;7.146;2022-09-12T22:51:36;29.40;41.30
53314;DHT22;39202;51.468;7.146;2022-09-12T22:56:38;29.30;41.30
53314;DHT22;39202;51.468;7.146;2022-09-12T23:01:40;29.40;41.40
53314;DHT22;39202;51.468;7.146;2022-09-12T23:06:43;29.30;41.30
53314;DHT22;39202;51.468;7.146;2022-09-12T23:11:44;29.30;41.30
53314;DHT22;39202;51.468;7.146;2022-09-12T23:16:46;29.30;41.30
53314;DHT22;39202;51.468;7.146;2022-09-12T23:21:49;29.30;41.40
53314;DHT22;39202;51.468;7.146;2022-09-12T23:26:51;29.30;64.50
53314;DHT22;39202;51.468;7.146;2022-09-12T23:31:52;29.20;54.90
53314;DHT22;39202;51.468;7.146;2022-09-12T23:36:56;29.20;41.40
53314;DHT22;39202;51.468;7.146;2022-09-12T23:41:57;29.20;41.30
53314;DHT22;39202;51.468;7.146;2022-09-12T23:46:59;29.30;41.50
53314;DHT22;39202;51.468;7.146;2022-09-12T23:52:02;29.20;41.30
53314;DHT22;39202;51.468;7.146;2022-09-12T23:57:04;29.30;41.30
